Time;durP1;ratioP1;P1;durP2;ratioP2;P2;SDS_P1;SDS_P2;PMS_P1;PMS_P2;Temp;Humidity;BMP_temperature;BMP_pressure;BME280_temperature;BME280_humidity;BME280_pressure;Samples;Min_cycle;Max_cycle;Signal;HPM_P1;HPM_P2
2023/12/22 00:02:13;;;;;;;26.05;2.42;;;;;;;;;;5110884;27;20045;-85
2023/12/22 00:04:39;;;;;;;18.35;2.45;;;;;;;;;;5092741;27;20045;-87
2023/12/22 00:07:05;;;;;;;31.92;2.90;;;;;;;;;;5093216;27;20082;-87
2023/12/22 00:09:31;;;;;;;32.03;3.05;;;;;;;;;;5094720;27;20453;-87
2023/12/22 00:11:57;;;;;;;27.95;3.88;;;;;;;;;;5093984;27;20103;-88
2023/12/22 00:14:23;;;;;;;32.38;3.65;;;;;;;;;;5110760;27;20039;-90
2023/12/22 00:16:49;;;;;;;23.80;2.50;;;;;;;;;;5094380;27;20366;-87
2023/12/22 00:19:15;;;;;;;33.50;4.10;;;;;;;;;;5094814;27;20133;-85
2023/12/22 00:21:41;;;;;;;29.75;4.15;;;;;;;;;;5094459;27;20136;-87
2023/12/22 00:24:08;;;;;;;29.88;3.72;;;;;;;;;;5094029;27;20051;-87
2023/12/22 00:26:34;;;;;;;27.67;3.30;;;;;;;;;;5093735;27;20074;-88
2023/12/22 00:29:00;;;;;;;24.83;3.70;;;;;;;;;;5093482;27;20075;-86
2023/12/22 00:31:26;;;;;;;20.27;2.22;;;;;;;;;;5091954;27;20051;-89
2023/12/22 00:33:52;;;;;;;19.98;2.78;;;;;;;;;;5109720;27;20078;-88
2023/12/22 00:36:20;;;;;;;25.10;2.40;;;;;;;;;;5092451;27;20035;-88
2023/12/22 00:38:46;;;;;;;27.55;3.40;;;;;;;;;;5092421;27;20050;-87
2023/12/22 00:41:13;;;;;;;26.27;2.47;;;;;;;;;;5092817;27;20046;-89
2023/12/22 00:43:39;;;;;;;20.05;1.70;;;;;;;;;;5092237;27;20047;-90
2023/12/22 00:46:05;;;;;;;18.60;3.20;;;;;;;;;;5109653;27;20043;-87
2023/12/22 00:48:31;;;;;;;22.15;2.60;;;;;;;;;;5092939;27;20123;-86
2023/12/22 00:50:57;;;;;;;12.25;2.22;;;;;;;;;;5109315;27;20590;-87
2023/12/22 00:53:23;;;;;;;20.10;2.38;;;;;;;;;;5094564;27;20073;-85
2023/12/22 00:55:49;;;;;;;29.30;1.90;;;;;;;;;;5096176;27;20035;-85
2023/12/22 00:58:16;;;;;;;28.85;3.00;;;;;;;;;;5101179;27;20062;-88
2023/12/22 01:00:42;;;;;;;26.80;3.45;;;;;;;;;;5120546;27;20039;-84
2023/12/22 01:03:08;;;;;;;39.05;4.32;;;;;;;;;;5116747;27;20039;-83
2023/12/22 01:05:34;;;;;;;30.45;2.58;;;;;;;;;;5116746;27;20046;-87
2023/12/22 01:08:00;;;;;;;27.80;3.53;;;;;;;;;;5099830;27;20042;-85
2023/12/22 01:10:26;;;;;;;14.30;1.45;;;;;;;;;;5097296;27;20050;-84
2023/12/22 01:12:55;;;;;;;10.48;0.70;;;3.70;99.90;;;;;;5094515;27;20043;-87
2023/12/22 01:15:22;;;;;;;12.60;1.45;;;;;;;;;;5094957;27;20546;-85
2023/12/22 01:17:48;;;;;;;13.10;1.60;;;;;;;;;;5110327;27;20140;-90
2023/12/22 01:20:14;;;;;;;19.48;2.47;;;;;;;;;;5094392;27;20039;-91
2023/12/22 01:22:41;;;;;;;16.80;2.80;;;;;;;;;;5093815;27;20043;-89
2023/12/22 01:25:07;;;;;;;18.23;1.92;;;;;;;;;;5111163;27;20088;-87
2023/12/22 01:27:33;;;;;;;20.98;2.97;;;;;;;;;;5095709;27;20578;-85
2023/12/22 01:29:59;;;;;;;31.88;4.15;;;;;;;;;;5094637;27;20526;-84
2023/12/22 01:32:25;;;;;;;24.90;4.20;;;;;;;;;;5111388;27;20043;-82
2023/12/22 01:34:51;;;;;;;12.38;1.45;;;;;;;;;;5093149;27;20575;-85
2023/12/22 01:37:18;;;;;;;26.73;3.08;;;;;;;;;;5108744;27;20070;-86
2023/12/22 01:39:44;;;;;;;13.52;2.80;;;;;;;;;;5093656;27;20031;-86
2023/12/22 01:42:10;;;;;;;24.90;3.03;;;;;;;;;;5110566;27;20450;-87
2023/12/22 01:44:36;;;;;;;22.92;3.28;;;;;;;;;;5094181;27;20130;-86
2023/12/22 01:47:02;;;;;;;21.05;3.55;;;;;;;;;;5092353;27;20051;-89
2023/12/22 01:49:29;;;;;;;24.63;2.28;;;;;;;;;;5108873;27;20059;-87
2023/12/22 01:51:55;;;;;;;20.20;4.10;;;;;;;;;;5092920;27;20050;-87
2023/12/22 01:54:21;;;;;;;21.52;3.38;;;;;;;;;;5092287;27;20043;-87
2023/12/22 01:56:48;;;;;;;26.75;2.83;;;;;;;;;;5091646;27;20075;-88
2023/12/22 01:59:14;;;;;;;22.50;2.72;;;;;;;;;;5109122;27;20149;-87
2023/12/22 02:01:40;;;;;;;26.45;3.42;;;;;;;;;;5109872;27;20035;-86
2023/12/22 02:04:06;;;;;;;22.67;3.80;;;;;;;;;;5109197;27;20531;-85
2023/12/22 02:06:36;;;;;;;23.38;2.97;;;;;;;;;;5092562;27;20066;-88
2023/12/22 02:09:03;;;;;;;15.75;2.55;;;;;;;;;;5109644;27;20083;-85
2023/12/22 02:11:30;;;;;;;31.45;2.88;;;;;;;;;;5127952;27;20062;-85
2023/12/22 02:13:56;;;;;;;20.98;2.58;;;;;;;;;;5091982;27;20100;-86
2023/12/22 02:16:30;;;;;;;34.53;5.03;;;3.60;99.90;;;;;;5091551;27;20035;-85
2023/12/22 02:18:59;;;;;;;31.45;2.58;;;;;;;;;;5092264;27;20035;-89
2023/12/22 02:21:25;;;;;;;17.65;2.80;;;;;;;;;;5091066;27;20039;-83
2023/12/22 02:23:51;;;;;;;32.97;3.97;;;;;;;;;;5108431;27;20202;-87
2023/12/22 02:26:34;;;;;;;25.02;4.28;;;;;;;;;;5107652;27;20042;-85
2023/12/22 02:29:01;;;;;;;27.48;3.17;;;;;;;;;;5090631;27;20049;-87
2023/12/22 02:31:38;;;;;;;35.08;4.95;;;;;;;;;;5090568;27;20644;-84
2023/12/22 02:34:08;;;;;;;29.67;3.00;;;;;;;;;;5108670;27;20140;-86
2023/12/22 02:36:37;;;;;;;19.95;4.15;;;;;;;;;;5091685;27;20140;-86
2023/12/22 02:39:03;;;;;;;26.08;3.00;;;;;;;;;;5109106;27;20043;-89
2023/12/22 02:41:30;;;;;;;27.45;2.97;;;;;;;;;;5108406;27;20492;-85
2023/12/22 02:43:56;;;;;;;23.52;3.50;;;;;;;;;;5108688;27;20154;-88
2023/12/22 02:46:22;;;;;;;32.72;5.07;;;;;;;;;;5090537;27;20111;-85
2023/12/22 02:48:48;;;;;;;25.00;3.10;;;;;;;;;;5106262;27;20047;-83
2023/12/22 02:51:14;;;;;;;32.83;4.38;;;;;;;;;;5089974;27;20042;-85
2023/12/22 02:53:40;;;;;;;21.83;3.80;;;;;;;;;;5107760;27;20793;-88
2023/12/22 02:56:07;;;;;;;18.23;1.90;;;;;;;;;;5108126;27;20464;-82
2023/12/22 02:58:33;;;;;;;22.38;2.58;;;;;;;;;;5108747;27;20122;-82
2023/12/22 03:00:59;;;;;;;23.58;4.63;;;;;;;;;;5110755;27;20043;-85
2023/12/22 03:03:25;;;;;;;24.58;2.67;;;;;;;;;;5094292;27;20185;-83
2023/12/22 03:05:51;;;;;;;20.10;3.30;;;;;;;;;;5112318;27;20051;-83
2023/12/22 03:08:17;;;;;;;26.20;2.55;;;;;;;;;;5091421;27;20385;-82
2023/12/22 03:10:43;;;;;;;16.42;1.85;;;;;;;;;;5090689;27;20047;-83
2023/12/22 03:13:10;;;;;;;28.80;2.58;;;;;;;;;;5090131;27;20186;-84
2023/12/22 03:15:36;;;;;;;24.48;3.60;;;;;;;;;;5106605;27;20046;-84
2023/12/22 03:18:02;;;;;;;36.38;5.30;;;;;;;;;;5089065;27;20079;-84
2023/12/22 03:20:28;;;;;;;32.08;3.83;;;;;;;;;;5089983;27;20385;-84
2023/12/22 03:22:54;;;;;;;24.38;2.55;;;;;;;;;;5107662;27;20050;-86
2023/12/22 03:25:21;;;;;;;33.45;4.53;;;;;;;;;;5089983;27;20047;-90
2023/12/22 03:27:47;;;;;;;19.90;2.03;;;;;;;;;;5089607;28;20054;-86
2023/12/22 03:30:13;;;;;;;22.77;1.83;;;;;;;;;;5107402;27;20793;-86
2023/12/22 03:32:39;;;;;;;23.90;3.20;;;;;;;;;;5093239;27;20043;-86
2023/12/22 03:35:05;;;;;;;16.83;2.35;;;;;;;;;;5094753;27;20579;-86
2023/12/22 03:37:32;;;;;;;22.98;2.05;;;;;;;;;;5110633;27;20122;-86
2023/12/22 03:39:58;;;;;;;26.00;3.50;;;;;;;;;;5093643;27;20689;-87
2023/12/22 03:42:24;;;;;;;21.02;1.70;;;;;;;;;;5110338;27;20601;-83
2023/12/22 03:44:50;;;;;;;24.25;1.60;;;;;;;;;;5093641;27;20046;-84
2023/12/22 03:47:17;;;;;;;23.02;4.65;;;;;;;;;;5109803;27;20061;-85
2023/12/22 03:49:43;;;;;;;22.63;3.13;;;;;;;;;;5092013;27;20123;-89
2023/12/22 03:52:10;;;;;;;16.05;2.35;;;;;;;;;;5094394;27;20077;-86
2023/12/22 03:54:36;;;;;;;20.40;2.33;;;;;;;;;;5095138;27;20039;-88
2023/12/22 03:57:02;;;;;;;19.17;1.90;;;;;;;;;;5094165;27;20389;-88
2023/12/22 03:59:29;;;;;;;17.38;2.17;;;;;;;;;;5094354;27;20050;-87
2023/12/22 04:01:57;;;;;;;17.58;1.27;;;;;;;;;;5111479;27;20043;-86
2023/12/22 04:04:23;;;;;;;18.25;2.20;;;;;;;;;;5111349;27;20570;-84
2023/12/22 04:06:49;;;;;;;24.60;2.05;;;;;;;;;;5111044;27;20457;-86
2023/12/22 04:09:16;;;;;;;21.23;2.28;;;;;;;;;;5110315;27;20043;-89
2023/12/22 04:11:42;;;;;;;28.45;3.38;;;;;;;;;;5093478;27;20100;-85
2023/12/22 04:14:08;;;;;;;22.75;3.88;;;;;;;;;;5110745;27;20058;-84
2023/12/22 04:16:37;;;;;;;38.50;6.30;;;4.10;99.90;;;;;;5109511;27;20035;-86
2023/12/22 04:19:04;;;;;;;31.77;2.92;;;;;;;;;;5093335;27;20121;-85
2023/12/22 04:21:30;;;;;;;22.60;3.47;;;;;;;;;;5092984;27;20109;-86
2023/12/22 04:23:56;;;;;;;30.83;5.07;;;;;;;;;;5092872;27;20662;-86
2023/12/22 04:26:22;;;;;;;30.70;4.00;;;;;;;;;;5092028;27;20053;-86
2023/12/22 04:28:48;;;;;;;28.63;3.47;;;;;;;;;;5091588;27;20050;-85
2023/12/22 04:31:14;;;;;;;26.25;4.28;;;;;;;;;;5108532;27;20050;-84
2023/12/22 04:33:40;;;;;;;20.33;2.75;;;;;;;;;;5109025;27;20049;-84
2023/12/22 04:36:07;;;;;;;36.67;4.57;;;;;;;;;;5108652;27;20043;-83
2023/12/22 04:38:33;;;;;;;19.77;2.58;;;;;;;;;;5108601;27;20046;-86
2023/12/22 04:40:59;;;;;;;26.65;4.53;;;;;;;;;;5091717;27;20043;-83
2023/12/22 04:43:25;;;;;;;27.45;3.30;;;;;;;;;;5091531;27;20074;-86
2023/12/22 04:45:51;;;;;;;29.90;3.35;;;;;;;;;;5127577;27;20543;-88
2023/12/22 04:48:17;;;;;;;18.08;2.17;;;;;;;;;;5109065;27;20812;-88
2023/12/22 04:50:43;;;;;;;18.92;3.30;;;;;;;;;;5109602;27;20050;-87
2023/12/22 04:53:09;;;;;;;33.97;4.20;;;;;;;;;;5093122;27;20442;-84
2023/12/22 04:55:36;;;;;;;38.75;3.58;;;;;;;;;;5109880;27;20051;-85
2023/12/22 04:58:02;;;;;;;31.23;3.28;;;;;;;;;;5108772;27;20729;-85
2023/12/22 05:00:28;;;;;;;32.60;3.67;;;;;;;;;;5109834;27;20065;-85
2023/12/22 05:02:54;;;;;;;40.03;5.75;;;;;;;;;;5092581;27;20039;-86
2023/12/22 05:05:20;;;;;;;27.95;2.85;;;;;;;;;;5092591;27;20528;-88
2023/12/22 05:07:46;;;;;;;22.98;2.80;;;;;;;;;;5109845;27;20043;-85
2023/12/22 05:10:12;;;;;;;31.60;2.85;;;;;;;;;;5107411;27;20087;-86
2023/12/22 05:12:39;;;;;;;27.98;3.90;;;;;;;;;;5091389;27;20418;-86
2023/12/22 05:15:05;;;;;;;22.38;3.60;;;;;;;;;;5091743;27;20096;-85
2023/12/22 05:17:32;;;;;;;30.13;3.70;;;;;;;;;;5092129;27;20046;-85
2023/12/22 05:19:59;;;;;;;34.53;4.40;;;;;;;;;;5091234;27;20043;-84
2023/12/22 05:22:26;;;;;;;38.30;4.60;;;;;;;;;;5109127;27;20411;-85
2023/12/22 05:24:52;;;;;;;25.90;4.20;;;;;;;;;;5108876;27;20043;-85
2023/12/22 05:27:19;;;;;;;32.58;5.18;;;;;;;;;;5091613;27;20035;-89
2023/12/22 05:29:45;;;;;;;29.17;4.15;;;;;;;;;;5091349;27;20367;-85
2023/12/22 05:32:11;;;;;;;27.40;3.90;;;;;;;;;;5106633;27;20054;-83
2023/12/22 05:34:37;;;;;;;29.50;4.25;;;;;;;;;;5091325;27;20043;-85
2023/12/22 05:37:03;;;;;;;25.02;5.18;;;;;;;;;;5090998;27;20407;-84
2023/12/22 05:39:30;;;;;;;21.17;4.20;;;;;;;;;;5091300;27;20130;-83
2023/12/22 05:41:56;;;;;;;28.20;3.90;;;;;;;;;;5108166;27;20046;-86
2023/12/22 05:44:24;;;;;;;29.17;3.53;;;;;;;;;;5090969;27;20054;-85
2023/12/22 05:46:50;;;;;;;24.20;2.33;;;;;;;;;;5107826;27;20049;-85
2023/12/22 05:49:16;;;;;;;25.80;2.50;;;;;;;;;;5111063;27;20046;-83
2023/12/22 05:51:42;;;;;;;23.88;3.80;;;;;;;;;;5128262;27;20602;-86
2023/12/22 05:54:10;;;;;;;17.98;3.45;;;;;;;;;;5111951;27;20042;-87
2023/12/22 05:56:39;;;;;;;31.02;5.07;;;;;;;;;;5111155;27;20038;-88
2023/12/22 05:59:05;;;;;;;23.67;2.05;;;;;;;;;;5127800;27;20042;-86
2023/12/22 06:01:31;;;;;;;23.98;3.03;;;;;;;;;;5110908;27;20047;-85
2023/12/22 06:03:58;;;;;;;26.25;3.63;;;;;;;;;;5111076;27;20050;-86
2023/12/22 06:06:24;;;;;;;30.08;3.20;;;;;;;;;;5111048;27;20483;-82
2023/12/22 06:08:50;;;;;;;25.05;2.72;;;;;;;;;;5127536;27;20516;-85
2023/12/22 06:11:16;;;;;;;29.30;3.75;;;;;;;;;;5128372;27;20043;-86
2023/12/22 06:13:42;;;;;;;22.95;3.03;;;;;;;;;;5110568;27;20070;-87
2023/12/22 06:16:12;;;;;;;28.08;4.07;;;;;;;;;;5127607;27;20042;-88
2023/12/22 06:18:38;;;;;;;19.90;2.60;;;;;;;;;;5127652;27;20130;-83
2023/12/22 06:21:04;;;;;;;16.33;2.47;;;;;;;;;;5110316;27;20054;-85
2023/12/22 06:23:30;;;;;;;24.95;5.20;;;;;;;;;;5127540;27;20046;-85
2023/12/22 06:25:56;;;;;;;19.90;4.53;;;;;;;;;;5127627;27;20184;-83
2023/12/22 06:28:22;;;;;;;19.83;2.22;;;;;;;;;;5110899;27;20043;-84
2023/12/22 06:30:48;;;;;;;30.13;4.40;;;;;;;;;;5110400;27;20133;-84
2023/12/22 06:33:15;;;;;;;22.35;1.77;;;;;;;;;;5127923;27;20042;-88
2023/12/22 06:35:41;;;;;;;19.98;3.38;;;;;;;;;;5110505;27;20039;-85
2023/12/22 06:38:07;;;;;;;22.95;2.60;;;;;;;;;;5111234;27;20071;-90
2023/12/22 06:40:35;;;;;;;17.70;2.58;;;;;;;;;;5127692;27;20043;-84
2023/12/22 06:43:01;;;;;;;30.35;2.35;;;;;;;;;;5109935;27;20050;-86
2023/12/22 06:45:27;;;;;;;19.70;2.50;;;;;;;;;;5110684;27;20048;-84
2023/12/22 06:47:53;;;;;;;19.65;2.55;;;;;;;;;;5127584;27;20562;-86
2023/12/22 06:50:19;;;;;;;18.95;3.55;;;;;;;;;;5127880;27;20646;-89
2023/12/22 06:52:45;;;;;;;18.80;2.13;;;;;;;;;;5128562;27;20043;-86
2023/12/22 06:55:11;;;;;;;19.42;2.58;;;;;;;;;;5110095;27;20099;-83
2023/12/22 06:57:38;;;;;;;23.00;2.67;;;;;;;;;;5111147;27;20045;-87
2023/12/22 07:00:04;;;;;;;21.55;2.63;;;;;;;;;;5128629;27;20038;-82
2023/12/22 07:02:30;;;;;;;19.63;3.08;;;;;;;;;;5114101;27;20066;-85
2023/12/22 07:05:15;;;;;;;16.02;2.28;;;;;;;;;;5115002;27;20154;-85
2023/12/22 07:07:41;;;;;;;23.10;2.58;;;;;;;;;;5131450;27;20077;-85
2023/12/22 07:10:07;;;;;;;16.17;1.90;;;;;;;;;;5112365;27;20388;-88
2023/12/22 07:12:34;;;;;;;18.10;2.50;;;;;;;;;;5127479;27;20050;-84
2023/12/22 07:15:00;;;;;;;16.38;1.42;;;;;;;;;;5109696;27;20521;-85
2023/12/22 07:17:26;;;;;;;17.10;2.03;;;;;;;;;;5110189;27;20038;-85
2023/12/22 07:19:52;;;;;;;30.02;2.47;;;;;;;;;;5109947;27;20702;-84
2023/12/22 07:22:18;;;;;;;16.95;1.60;;;;;;;;;;5127221;27;20038;-86
2023/12/22 07:24:44;;;;;;;18.67;2.20;;;;;;;;;;5109999;27;20475;-83
2023/12/22 07:27:11;;;;;;;17.60;2.47;;;;;;;;;;5109664;27;20766;-84
2023/12/22 07:29:37;;;;;;;20.23;3.38;;;;;;;;;;5109444;27;20487;-83
2023/12/22 07:32:06;;;;;;;14.93;1.40;;;;;;;;;;5110230;27;20042;-84
2023/12/22 07:34:32;;;;;;;21.83;2.70;;;5.00;99.90;;;;;;5127182;27;20046;-86
2023/12/22 07:36:58;;;;;;;11.43;2.45;;;;;;;;;;5106566;27;20065;-85
2023/12/22 07:39:24;;;;;;;14.95;1.60;;;;;;;;;;5125594;27;20439;-88
2023/12/22 07:41:50;;;;;;;25.20;2.58;;;;;;;;;;5119745;27;20174;-85
2023/12/22 07:44:16;;;;;;;14.77;2.33;;;;;;;;;;5098856;27;20034;-86
2023/12/22 07:46:42;;;;;;;14.88;1.98;;;;;;;;;;5097688;27;20089;-84
2023/12/22 07:49:09;;;;;;;15.18;3.33;;;;;;;;;;5116963;27;20062;-85
2023/12/22 07:51:35;;;;;;;12.75;1.73;;;;;;;;;;5099980;27;20070;-86
2023/12/22 07:54:01;;;;;;;17.85;3.22;;;;;;;;;;5098104;27;20118;-81
2023/12/22 07:56:27;;;;;;;21.95;3.63;;;;;;;;;;5098948;27;20738;-83
2023/12/22 07:58:53;;;;;;;17.60;1.92;;;;;;;;;;5097312;27;20458;-85
2023/12/22 08:01:19;;;;;;;23.88;4.22;;;;;;;;;;5115942;27;20095;-86
2023/12/22 08:03:45;;;;;;;18.25;3.55;;;;;;;;;;5099781;27;20530;-86
2023/12/22 08:06:14;;;;;;;25.48;2.53;;;;;;;;;;5097202;27;20579;-84
2023/12/22 08:08:39;;;;;;;22.00;2.60;;;5.20;99.90;;;;;;5115897;27;20042;-87
2023/12/22 08:11:06;;;;;;;13.07;2.70;;;;;;;;;;5099043;27;20047;-87
2023/12/22 08:13:32;;;;;;;15.02;2.05;;;;;;;;;;5100228;27;20083;-83
2023/12/22 08:15:58;;;;;;;18.23;2.45;;;;;;;;;;5114669;27;20066;-84
2023/12/22 08:18:24;;;;;;;16.08;1.40;;;;;;;;;;5099517;27;20318;-82
2023/12/22 08:20:50;;;;;;;15.43;2.67;;;;;;;;;;5103117;27;20039;-84
2023/12/22 08:23:16;;;;;;;26.48;1.85;;;;;;;;;;5118007;27;20027;-84
2023/12/22 08:25:42;;;;;;;13.43;1.90;;;;;;;;;;5117773;27;20042;-82
2023/12/22 08:28:09;;;;;;;25.23;2.25;;;;;;;;;;5116828;27;20562;-82
2023/12/22 08:30:35;;;;;;;21.63;1.77;;;;;;;;;;5117994;27;20035;-84
2023/12/22 08:33:01;;;;;;;18.92;2.13;;;;;;;;;;5100139;27;20051;-84
2023/12/22 08:35:27;;;;;;;20.88;1.95;;;;;;;;;;5120306;27;20031;-82
2023/12/22 08:37:53;;;;;;;15.98;1.55;;;;;;;;;;5100869;27;20176;-88
2023/12/22 08:40:25;;;;;;;17.58;2.45;;;;;;;;;;5119319;27;20042;-85
2023/12/22 08:42:54;;;;;;;13.77;2.20;;;;;;;;;;5120377;27;20417;-83
2023/12/22 08:45:21;;;;;;;7.53;1.33;;;;;;;;;;5102795;27;20554;-84
2023/12/22 08:47:47;;;;;;;15.95;2.35;;;;;;;;;;5103238;27;20043;-83
2023/12/22 08:50:13;;;;;;;20.23;2.55;;;;;;;;;;5101572;27;20555;-82
2023/12/22 08:52:40;;;;;;;16.80;1.85;;;;;;;;;;5101915;27;20515;-82
2023/12/22 08:55:06;;;;;;;15.77;1.42;;;;;;;;;;5119275;27;20449;-86
2023/12/22 08:57:32;;;;;;;15.80;1.63;;;;;;;;;;5125352;27;20046;-84
2023/12/22 08:59:58;;;;;;;19.45;2.05;;;;;;;;;;5120123;27;20031;-83
2023/12/22 09:02:26;;;;;;;12.75;1.33;;;;;;;;;;5118684;27;20070;-86
2023/12/22 09:04:52;;;;;;;17.27;1.90;;;;;;;;;;5102133;27;20053;-84
2023/12/22 09:07:19;;;;;;;13.20;1.33;;;5.50;99.90;;;;;;5100745;27;20039;-85
2023/12/22 09:09:45;;;;;;;16.10;3.00;;;;;;;;;;5101565;27;20038;-83
2023/12/22 09:12:11;;;;;;;18.73;1.73;;;;;;;;;;5102326;27;20035;-83
2023/12/22 09:14:37;;;;;;;13.00;1.25;;;;;;;;;;5102319;27;20035;-84
2023/12/22 09:17:03;;;;;;;18.63;1.30;;;;;;;;;;5115715;27;20114;-83
2023/12/22 09:19:32;;;;;;;16.23;1.60;;;;;;;;;;5118036;27;20045;-82
2023/12/22 09:21:58;;;;;;;11.30;1.10;;;;;;;;;;5117367;27;20039;-84
2023/12/22 09:24:25;;;;;;;15.52;1.50;;;;;;;;;;5100858;27;20107;-85
2023/12/22 09:26:51;;;;;;;16.77;2.95;;;;;;;;;;5102915;27;20508;-84
2023/12/22 09:29:18;;;;;;;11.10;1.50;;;;;;;;;;5101511;27;20509;-84
2023/12/22 09:31:44;;;;;;;12.00;1.63;;;;;;;;;;5124929;27;20122;-84
2023/12/22 09:34:10;;;;;;;8.88;1.20;;;;;;;;;;5108724;27;20047;-83
2023/12/22 09:36:36;;;;;;;9.90;0.70;;;;;;;;;;5125158;27;20030;-84
2023/12/22 09:39:02;;;;;;;10.05;1.98;;;;;;;;;;5108232;27;20035;-86
2023/12/22 09:41:29;;;;;;;4.85;1.20;;;;;;;;;;5110361;27;20403;-83
2023/12/22 09:43:56;;;;;;;6.25;0.30;;;;;;;;;;5121562;27;20527;-84
2023/12/22 09:46:23;;;;;;;10.50;0.75;;;;;;;;;;5117761;27;20043;-83
2023/12/22 09:48:52;;;;;;;3.28;0.20;;;6.00;99.90;;;;;;5099967;27;20045;-86
2023/12/22 09:51:18;;;;;;;8.32;1.23;;;;;;;;;;5119887;27;20042;-88
2023/12/22 09:53:45;;;;;;;6.82;0.45;;;;;;;;;;5097596;27;20603;-86
2023/12/22 09:56:15;;;;;;;8.07;0.68;;;6.00;99.90;;;;;;5099265;27;20597;-87
2023/12/22 09:58:41;;;;;;;5.13;0.60;;;;;;;;;;5115492;27;20032;-86
2023/12/22 10:01:08;;;;;;;7.50;0.80;;;6.10;99.90;;;;;;5101142;27;20760;-85
2023/12/22 10:03:34;;;;;;;12.32;1.95;;;;;;;;;;5116964;27;20118;-87
2023/12/22 10:06:01;;;;;;;10.57;1.35;;;;;;;;;;5106375;27;20043;-84
2023/12/22 10:08:27;;;;;;;8.43;0.75;;;;;;;;;;5103927;27;20395;-82
2023/12/22 10:10:55;;;;;;;13.48;0.73;;;6.10;99.90;;;;;;5114505;27;20039;-82
2023/12/22 10:13:21;;;;;;;14.25;0.85;;;;;;;;;;5105399;27;20034;-86
2023/12/22 10:15:48;;;;;;;9.90;0.75;;;;;;;;;;5122614;27;20054;-85
2023/12/22 10:18:14;;;;;;;11.80;1.42;;;;;;;;;;5122545;27;20251;-86
2023/12/22 10:20:41;;;;;;;9.02;0.70;;;;;;;;;;5102282;27;20079;-86
2023/12/22 10:23:07;;;;;;;8.27;0.65;;;;;;;;;;5091738;27;20031;-84
2023/12/22 10:25:33;;;;;;;11.95;1.33;;;;;;;;;;5091616;27;20113;-84
2023/12/22 10:27:59;;;;;;;14.30;1.05;;;;;;;;;;5102239;27;20043;-83
2023/12/22 10:30:27;;;;;;;15.05;1.40;;;6.20;99.90;;;;;;5112882;27;20046;-86
2023/12/22 10:32:54;;;;;;;15.57;1.67;;;;;;;;;;5091353;27;20034;-83
2023/12/22 10:35:23;;;;;;;7.43;0.63;;;6.20;99.90;;;;;;5104921;27;20122;-86
2023/12/22 10:37:53;;;;;;;10.65;0.65;;;;;;;;;;5114291;27;20984;-86
2023/12/22 10:40:19;;;;;;;19.90;2.25;;;;;;;;;;5105852;27;20487;-83
2023/12/22 10:42:46;;;;;;;9.43;1.23;;;;;;;;;;5118114;27;20043;-84
2023/12/22 10:45:13;;;;;;;6.82;0.90;;;;;;;;;;5109330;27;20047;-81
2023/12/22 10:47:42;;;;;;;16.92;1.33;;;;;;;;;;5093359;27;20035;-84
2023/12/22 10:50:11;;;;;;;14.10;0.80;;;6.30;99.90;;;;;;5133322;27;20686;-83
2023/12/22 10:52:37;;;;;;;14.15;1.83;;;;;;;;;;5105451;27;20034;-82
2023/12/22 10:55:04;;;;;;;14.98;1.35;;;;;;;;;;5112165;27;20386;-82
2023/12/22 10:57:37;;;;;;;16.88;2.75;;;6.30;99.90;;;;;;5109036;27;20043;-83
2023/12/22 11:00:05;;;;;;;13.55;0.90;;;6.10;99.90;;;;;;5104060;27;20436;-84
2023/12/22 11:02:34;;;;;;;7.40;1.40;;;;;;;;;;5101101;27;20042;-83
2023/12/22 11:05:07;;;;;;;14.07;1.65;;;;;;;;;;5100086;27;20043;-83
2023/12/22 11:07:35;;;;;;;19.65;2.00;;;6.30;99.90;;;;;;5117498;27;20639;-83
2023/12/22 11:10:12;;;;;;;8.70;0.70;;;6.30;99.90;;;;;;5106984;27;20050;-86
2023/12/22 11:12:43;;;;;;;10.95;1.00;;;6.30;99.90;;;;;;5127188;27;20046;-84
2023/12/22 11:15:11;;;;;;;11.73;1.55;;;6.30;99.90;;;;;;5120506;27;20034;-82
2023/12/22 11:17:40;;;;;;;16.38;1.52;;;;;;;;;;5090247;27;20697;-82
2023/12/22 11:20:09;;;;;;;11.63;1.02;;;6.50;99.90;;;;;;5089826;27;20123;-86
2023/12/22 11:22:36;;;;;;;10.60;1.58;;;6.40;99.90;;;;;;5105673;27;20131;-82
2023/12/22 11:25:04;;;;;;;13.82;4.10;;;6.50;99.90;;;;;;5106319;27;20051;-84
2023/12/22 11:27:33;;;;;;;17.83;3.22;;;6.50;99.90;;;;;;5106595;28;20407;-83
2023/12/22 11:30:01;;;;;;;12.57;1.23;;;6.50;99.90;;;;;;5089942;28;20131;-86
2023/12/22 11:32:29;;;;;;;10.43;2.03;;;6.50;99.90;;;;;;5089199;28;20051;-82
2023/12/22 11:34:57;;;;;;;11.02;1.35;;;;;;;;;;5106480;28;20042;-84
2023/12/22 11:37:23;;;;;;;19.35;1.88;;;;;;;;;;5090116;28;20086;-84
2023/12/22 11:39:49;;;;;;;15.82;1.83;;;;;;;;;;5090181;28;20498;-83
2023/12/22 11:42:27;;;;;;;15.07;2.40;;;;;;;;;;5089204;28;20043;-84
2023/12/22 11:44:54;;;;;;;15.90;1.10;;;7.00;99.90;;;;;;5089293;28;20087;-85
2023/12/22 11:47:23;;;;;;;13.77;2.42;;;;;;;;;;5105932;28;20096;-86
2023/12/22 11:49:52;;;;;;;21.67;3.17;;;;;;;;;;5106092;28;20412;-84
2023/12/22 11:52:25;;;;;;;11.40;1.30;;;6.80;99.90;;;;;;5089245;28;20076;-83
2023/12/22 11:54:52;;;;;;;15.55;1.58;;;6.80;99.90;;;;;;5109619;27;20082;-85
2023/12/22 11:57:27;;;;;;;12.30;2.35;;;6.80;99.90;;;;;;5110113;27;20131;-84
2023/12/22 11:59:53;;;;;;;16.55;2.05;;;;;;;;;;5109752;27;20797;-83
2023/12/22 12:02:19;;;;;;;14.40;2.95;;;;;;;;;;5109370;27;20769;-83
2023/12/22 12:04:48;;;;;;;10.60;0.98;;;6.70;99.90;;;;;;5109746;27;20060;-85
2023/12/22 12:07:50;;;;;;;13.90;1.60;;;6.80;99.90;;;;;;5093659;27;20043;-86
2023/12/22 12:10:37;;;;;;;11.40;1.00;;;;;;;;;;5067265;28;20055;-84
2023/12/22 12:13:06;;;;;;;13.90;1.88;;;6.80;99.90;;;;;;5090437;27;20080;-87
2023/12/22 12:15:34;;;;;;;13.40;1.55;;;6.70;99.90;;;;;;5093574;27;20514;-86
2023/12/22 12:18:00;;;;;;;10.85;0.98;;;;;;;;;;5110914;27;20043;-84
2023/12/22 12:20:27;;;;;;;11.98;1.02;;;;;;;;;;5092521;27;20661;-85
2023/12/22 12:22:55;;;;;;;16.27;0.90;;;6.70;99.90;;;;;;5092136;27;20090;-82
2023/12/22 12:25:29;;;;;;;27.42;4.18;;;6.50;99.90;;;;;;5109261;27;20039;-83
2023/12/22 12:28:08;;;;;;;18.20;2.42;;;;;;;;;;5092147;27;20047;-83
2023/12/22 12:30:36;;;;;;;15.93;2.78;;;6.80;99.90;;;;;;5109123;27;20116;-84
2023/12/22 12:33:09;;;;;;;13.63;1.17;;;6.80;99.90;;;;;;5091954;27;20084;-86
2023/12/22 12:35:36;;;;;;;10.55;1.05;;;;;;;;;;5091926;27;20043;-85
2023/12/22 12:38:03;;;;;;;22.92;3.83;;;6.80;99.90;;;;;;5092696;27;20043;-83
2023/12/22 12:40:31;;;;;;;17.02;1.20;;;;;;;;;;5092448;27;20096;-83
2023/12/22 12:42:57;;;;;;;14.98;2.10;;;;;;;;;;5109026;27;20536;-83
2023/12/22 12:45:23;;;;;;;14.57;1.92;;;6.80;99.90;;;;;;5111577;27;20061;-87
2023/12/22 12:47:59;;;;;;;14.40;1.20;;;6.80;99.90;;;;;;5102471;27;20047;-82
2023/12/22 12:50:26;;;;;;;14.35;1.38;;;;;;;;;;5119906;27;20043;-83
2023/12/22 12:52:55;;;;;;;11.50;1.88;;;;;;;;;;5116856;27;20754;-83
2023/12/22 12:55:25;;;;;;;15.63;1.95;;;;;;;;;;5097302;27;20100;-84
2023/12/22 12:57:55;;;;;;;13.95;1.75;;;6.90;99.90;;;;;;5112405;27;20078;-83
2023/12/22 13:00:25;;;;;;;9.90;1.85;;;;;;;;;;5093348;27;20118;-84
2023/12/22 13:02:55;;;;;;;14.70;2.70;;;6.90;99.90;;;;;;5093547;27;20843;-84
2023/12/22 13:05:22;;;;;;;16.70;1.00;;;6.80;99.90;;;;;;5110721;27;20042;-86
2023/12/22 13:07:48;;;;;;;14.13;1.35;;;;;;;;;;5093217;27;20043;-83
2023/12/22 13:10:25;;;;;;;14.82;1.30;;;6.70;99.90;;;;;;5092960;27;20511;-85
2023/12/22 13:12:53;;;;;;;13.70;1.25;;;6.90;99.90;;;;;;5094035;27;20051;-84
2023/12/22 13:15:21;;;;;;;14.60;1.67;;;;;;;;;;5096914;27;20042;-83
2023/12/22 13:17:47;;;;;;;13.68;0.82;;;6.50;99.90;;;;;;5098912;27;20733;-87
2023/12/22 13:20:13;;;;;;;13.27;0.75;;;;;;;;;;5093584;27;20100;-84
2023/12/22 13:22:39;;;;;;;8.80;0.85;;;;;;;;;;5109454;27;20047;-87
2023/12/22 13:25:05;;;;;;;14.95;0.82;;;6.40;99.90;;;;;;5092088;27;20050;-86
2023/12/22 13:27:34;;;;;;;15.95;3.03;;;;;;;;;;5092104;27;20056;-84
2023/12/22 13:30:01;;;;;;;15.88;0.70;;;;;;;;;;5110596;27;20050;-86
2023/12/22 13:32:27;;;;;;;11.10;0.75;;;;;;;;;;5109619;27;20628;-87
2023/12/22 13:34:54;;;;;;;15.32;1.33;;;6.30;99.90;;;;;;5108225;27;20500;-88
2023/12/22 13:37:22;;;;;;;10.00;1.63;;;6.20;99.90;;;;;;5108718;27;20043;-88
2023/12/22 13:39:52;;;;;;;19.52;2.35;;;6.10;99.90;;;;;;5108028;27;20126;-83
2023/12/22 13:42:21;;;;;;;16.98;1.63;;;6.10;99.90;;;;;;5107865;27;20392;-83
2023/12/22 13:44:49;;;;;;;15.13;1.38;;;6.10;99.90;;;;;;5090956;27;20567;-85
2023/12/22 13:47:18;;;;;;;12.32;1.00;;;6.10;99.90;;;;;;5091363;27;20058;-86
2023/12/22 13:49:45;;;;;;;15.45;1.42;;;;;;;;;;5107792;27;20039;-84
2023/12/22 13:52:34;;;;;;;8.80;0.60;;;6.00;99.90;;;;;;5107758;27;20078;-87
2023/12/22 13:55:02;;;;;;;11.13;0.70;;;;;;;;;;5090360;27;20072;-89
2023/12/22 13:57:28;;;;;;;14.52;1.65;;;;;;;;;;5108229;27;20050;-84
2023/12/22 13:59:55;;;;;;;11.63;1.38;;;;;;;;;;5091837;27;20104;-89
2023/12/22 14:02:24;;;;;;;12.38;1.05;;;6.10;99.90;;;;;;5107647;27;20130;-87
2023/12/22 14:04:51;;;;;;;9.85;1.52;;;5.80;99.90;;;;;;5089902;27;20043;-88
2023/12/22 14:07:17;;;;;;;11.73;0.57;;;;;;;;;;5089716;27;20049;-88
2023/12/22 14:09:43;;;;;;;17.95;1.40;;;;;;;;;;5090931;27;20068;-86
2023/12/22 14:12:09;;;;;;;9.40;0.60;;;;;;;;;;5108698;27;20384;-83